Bay City, Michigan
Current Conditions -  °F | °C
As of 3:53 PM on Tuesday 25 Nov 2014 (Local Time) from KMBS Reporting Station
Overcast Overcast  
Wind Chill: 25°   Ceiling: 3800
Heat Index: 34°   Visibility: 10mi
Dew Point: 23°   Wind: 14mph
Humidity: 64%   Direction: 260°W
Pressure: 30.03"   Gusts: NA
Location:  43.6°N, 83.88°W
Report Text: KMBS 252053Z 26012KT 10SM BKN038 OVC046 01/M05 A3003 RMK AO2 SLP175 60000 T00111050 53023
Loading
Personal Weather Stations






























Interactive Weather Map New forecast layout! Learn more

10-Day Weather Forecast

Advertisements
Track Severe Weather on mobile